createdAt,value
2017-04-23T00:00:53.739Z,1017.78
2017-04-23T00:01:53.711Z,1017.77
2017-04-23T00:02:53.685Z,1017.72
2017-04-23T00:03:53.660Z,1017.75
2017-04-23T00:04:53.635Z,1017.77
2017-04-23T00:05:53.610Z,1017.73
2017-04-23T00:06:53.591Z,1017.74
2017-04-23T00:07:53.561Z,1017.72
2017-04-23T00:08:53.534Z,1017.7
2017-04-23T00:09:53.507Z,1017.68
2017-04-23T00:10:53.480Z,1017.67
2017-04-23T00:11:53.458Z,1017.68
2017-04-23T00:12:53.431Z,1017.65
2017-04-23T00:13:53.406Z,1017.69
2017-04-23T00:14:53.382Z,1017.65
2017-04-23T00:15:53.355Z,1017.66
2017-04-23T00:16:53.330Z,1017.7
2017-04-23T00:17:53.308Z,1017.67
2017-04-23T00:18:53.280Z,1017.66
2017-04-23T00:19:53.254Z,1017.66
2017-04-23T00:20:53.229Z,1017.62
2017-04-23T00:21:53.204Z,1017.66
2017-04-23T00:22:53.180Z,1017.63
2017-04-23T00:23:53.155Z,1017.6
2017-04-23T00:24:53.129Z,1017.6
2017-04-23T00:25:53.104Z,1017.61
2017-04-23T00:26:53.082Z,1017.59
2017-04-23T00:27:53.053Z,1017.6
2017-04-23T00:28:53.028Z,1017.58
2017-04-23T00:29:53.003Z,1017.55
2017-04-23T00:30:52.976Z,1017.59
2017-04-23T00:31:52.955Z,1017.58
2017-04-23T00:32:52.935Z,1017.56
2017-04-23T00:33:52.902Z,1017.56
2017-04-23T00:34:52.900Z,1017.54
2017-04-23T00:35:52.855Z,1017.58
2017-04-23T00:36:52.828Z,1017.58
2017-04-23T00:37:52.802Z,1017.52
2017-04-23T00:38:52.778Z,1017.51
2017-04-23T00:39:52.750Z,1017.54
2017-04-23T00:40:52.724Z,1017.55
2017-04-23T00:41:52.701Z,1017.52
2017-04-23T00:42:52.676Z,1017.51
2017-04-23T00:43:52.652Z,1017.52
2017-04-23T00:44:52.627Z,1017.53
2017-04-23T00:45:52.600Z,1017.53
2017-04-23T00:46:52.575Z,1017.5
2017-04-23T00:47:52.549Z,1017.47
2017-04-23T00:48:52.528Z,1017.51
2017-04-23T00:49:52.500Z,1017.55
2017-04-23T00:50:52.475Z,1017.54
2017-04-23T00:51:52.450Z,1017.49
2017-04-23T00:52:52.426Z,1017.54
2017-04-23T00:53:52.400Z,1017.5
2017-04-23T00:54:52.374Z,1017.5
2017-04-23T00:55:52.349Z,1017.48
2017-04-23T00:56:52.325Z,1017.54
2017-04-23T00:57:52.302Z,1017.5
2017-04-23T00:58:52.276Z,1017.47
2017-04-23T00:59:52.247Z,1017.52
2017-04-23T01:00:52.226Z,1017.48
2017-04-23T01:01:52.543Z,1017.53
2017-04-23T01:02:52.173Z,1017.52
2017-04-23T01:03:52.153Z,1017.54
2017-04-23T01:04:52.126Z,1017.54
2017-04-23T01:05:52.103Z,1017.54
2017-04-23T01:06:52.075Z,1017.52
2017-04-23T01:07:52.048Z,1017.51
2017-04-23T01:08:52.024Z,1017.52
2017-04-23T01:09:51.998Z,1017.5
2017-04-23T01:10:51.987Z,1017.47
2017-04-23T01:11:51.952Z,1017.49
2017-04-23T01:12:51.922Z,1017.5
2017-04-23T01:13:51.900Z,1017.52
2017-04-23T01:14:51.874Z,1017.48
2017-04-23T01:15:51.848Z,1017.46
2017-04-23T01:16:51.822Z,1017.47
2017-04-23T01:17:51.797Z,1017.48
2017-04-23T01:18:51.773Z,1017.48
2017-04-23T01:19:51.752Z,1017.48
2017-04-23T01:20:51.722Z,1017.48
2017-04-23T01:21:51.700Z,1017.54
2017-04-23T01:22:51.673Z,1017.51
2017-04-23T01:23:51.653Z,1017.47
2017-04-23T01:24:51.624Z,1017.52
2017-04-23T01:25:51.599Z,1017.53
2017-04-23T01:26:51.573Z,1017.53
2017-04-23T01:27:51.551Z,1017.55
2017-04-23T01:28:51.521Z,1017.53
2017-04-23T01:29:51.498Z,1017.53
2017-04-23T01:30:51.469Z,1017.54
2017-04-23T01:31:51.447Z,1017.58
2017-04-23T01:32:51.418Z,1017.58
2017-04-23T01:33:51.402Z,1017.56
2017-04-23T01:34:51.368Z,1017.56
2017-04-23T01:35:51.346Z,1017.59
2017-04-23T01:36:51.317Z,1017.56
2017-04-23T01:37:51.296Z,1017.57
2017-04-23T01:38:51.270Z,1017.57
2017-04-23T01:39:51.242Z,1017.53
2017-04-23T01:40:51.218Z,1017.51
2017-04-23T01:41:51.195Z,1017.57
2017-04-23T01:42:51.168Z,1017.58
2017-04-23T01:43:51.140Z,1017.59
2017-04-23T01:44:51.117Z,1017.56
2017-04-23T01:45:51.092Z,1017.62
2017-04-23T01:46:51.071Z,1017.59
2017-04-23T01:47:51.045Z,1017.59
2017-04-23T01:48:51.020Z,1017.58
2017-04-23T01:49:50.991Z,1017.55
2017-04-23T01:50:50.966Z,1017.53
2017-04-23T01:51:50.943Z,1017.56
2017-04-23T01:52:50.915Z,1017.54
2017-04-23T01:53:50.890Z,1017.52
2017-04-23T01:54:50.865Z,1017.51
2017-04-23T01:55:50.892Z,1017.5
2017-04-23T01:56:50.813Z,1017.56
2017-04-23T01:57:50.787Z,1017.52
2017-04-23T01:58:50.763Z,1017.49
2017-04-23T01:59:50.739Z,1017.55
2017-04-23T02:00:50.712Z,1017.52
2017-04-23T02:01:50.687Z,1017.5
2017-04-23T02:02:50.662Z,1017.51
2017-04-23T02:03:50.636Z,1017.52
2017-04-23T02:04:50.611Z,1017.49
2017-04-23T02:05:50.586Z,1017.48
2017-04-23T02:06:50.566Z,1017.54
2017-04-23T02:07:50.535Z,1017.5
2017-04-23T02:08:50.512Z,1017.51
2017-04-23T02:09:50.486Z,1017.5
2017-04-23T02:10:50.461Z,1017.51
2017-04-23T02:11:50.434Z,1017.44
2017-04-23T02:12:50.411Z,1017.5
2017-04-23T02:13:50.384Z,1017.42
2017-04-23T02:14:50.357Z,1017.49
2017-04-23T02:15:50.333Z,1017.51
2017-04-23T02:16:50.310Z,1017.5
2017-04-23T02:17:50.284Z,1017.52
2017-04-23T02:18:50.258Z,1017.51
2017-04-23T02:19:50.232Z,1017.49
2017-04-23T02:20:50.208Z,1017.54
2017-04-23T02:21:50.184Z,1017.52
2017-04-23T02:22:50.155Z,1017.48
2017-04-23T02:23:50.136Z,1017.5
2017-04-23T02:24:50.112Z,1017.53
2017-04-23T02:25:50.084Z,1017.5
2017-04-23T02:26:50.058Z,1017.55
2017-04-23T02:27:50.031Z,1017.55
2017-04-23T02:28:50.004Z,1017.54
2017-04-23T02:29:49.981Z,1017.55
2017-04-23T02:30:49.955Z,1017.54
2017-04-23T02:31:49.929Z,1017.57
2017-04-23T02:32:49.907Z,1017.56
2017-04-23T02:33:49.928Z,1017.49
2017-04-23T02:34:49.851Z,1017.5
2017-04-23T02:35:49.828Z,1017.54
2017-04-23T02:36:49.800Z,1017.53
2017-04-23T02:37:49.778Z,1017.54
2017-04-23T02:38:49.755Z,1017.53
2017-04-23T02:39:49.724Z,1017.48
2017-04-23T02:40:49.699Z,1017.5
2017-04-23T02:41:49.674Z,1017.54
2017-04-23T02:42:49.648Z,1017.47
2017-04-23T02:43:49.623Z,1017.5
2017-04-23T02:44:49.646Z,1017.49
2017-04-23T02:45:49.574Z,1017.51
2017-04-23T02:46:49.545Z,1017.48
2017-04-23T02:47:49.519Z,1017.47
2017-04-23T02:48:49.496Z,1017.48
2017-04-23T02:49:49.470Z,1017.49
2017-04-23T02:50:49.446Z,1017.47
2017-04-23T02:51:49.417Z,1017.45
2017-04-23T02:52:49.399Z,1017.49
2017-04-23T02:53:49.368Z,1017.46
2017-04-23T02:54:49.339Z,1017.49
2017-04-23T02:55:49.315Z,1017.46
2017-04-23T02:56:49.289Z,1017.52
2017-04-23T02:57:49.267Z,1017.51
2017-04-23T02:58:49.240Z,1017.54
2017-04-23T02:59:49.212Z,1017.54
2017-04-23T03:00:49.190Z,1017.57
2017-04-23T03:01:49.160Z,1017.55
2017-04-23T03:02:49.137Z,1017.52
2017-04-23T03:03:49.108Z,1017.54
2017-04-23T03:04:49.084Z,1017.56
2017-04-23T03:05:49.057Z,1017.55
2017-04-23T03:06:49.035Z,1017.55
2017-04-23T03:07:49.007Z,1017.54
2017-04-23T03:08:48.979Z,1017.58
2017-04-23T03:09:48.954Z,1017.61
2017-04-23T03:10:48.927Z,1017.61
2017-04-23T03:11:48.903Z,1017.59
2017-04-23T03:12:48.878Z,1017.59
2017-04-23T03:13:48.852Z,1017.6
2017-04-23T03:14:48.829Z,1017.61
2017-04-23T03:15:48.800Z,1017.6
2017-04-23T03:16:48.771Z,1017.55
2017-04-23T03:17:48.752Z,1017.62
2017-04-23T03:18:48.723Z,1017.62
2017-04-23T03:19:48.699Z,1017.58
2017-04-23T03:20:48.677Z,1017.57
2017-04-23T03:21:48.645Z,1017.62
2017-04-23T03:22:48.620Z,1017.63
2017-04-23T03:23:48.598Z,1017.57
2017-04-23T03:24:48.568Z,1017.59
2017-04-23T03:25:48.543Z,1017.6
2017-04-23T03:26:48.515Z,1017.59
2017-04-23T03:27:48.492Z,1017.59
2017-04-23T03:28:48.466Z,1017.59
2017-04-23T03:29:48.436Z,1017.64
2017-04-23T03:30:48.416Z,1017.62
2017-04-23T03:31:48.385Z,1017.6
2017-04-23T03:32:48.358Z,1017.64
2017-04-23T03:33:48.334Z,1017.62
2017-04-23T03:34:48.308Z,1017.64
2017-04-23T03:35:48.285Z,1017.65
2017-04-23T03:36:48.261Z,1017.68
2017-04-23T03:37:48.232Z,1017.62
2017-04-23T03:38:48.202Z,1017.64
2017-04-23T03:39:48.179Z,1017.65
2017-04-23T03:40:48.152Z,1017.65
2017-04-23T03:41:48.129Z,1017.67
2017-04-23T03:42:48.100Z,1017.61
2017-04-23T03:43:48.075Z,1017.63
2017-04-23T03:44:48.049Z,1017.61
2017-04-23T03:45:48.024Z,1017.65
2017-04-23T03:46:47.992Z,1017.62
2017-04-23T03:47:47.972Z,1017.64
2017-04-23T03:48:47.947Z,1017.63
2017-04-23T03:49:47.919Z,1017.63
2017-04-23T03:50:47.892Z,1017.63
2017-04-23T03:51:47.864Z,1017.66
2017-04-23T03:52:47.865Z,1017.62
2017-04-23T03:53:47.813Z,1017.66
2017-04-23T03:54:47.789Z,1017.59
2017-04-23T03:55:47.780Z,1017.64
2017-04-23T03:56:47.739Z,1017.62
2017-04-23T03:57:47.711Z,1017.66
2017-04-23T03:58:47.684Z,1017.58
2017-04-23T03:59:47.663Z,1017.62
2017-04-23T04:00:47.634Z,1017.67
2017-04-23T04:01:47.609Z,1017.7
2017-04-23T04:02:47.584Z,1017.74
2017-04-23T04:03:47.556Z,1017.71
2017-04-23T04:04:47.529Z,1017.74
2017-04-23T04:05:47.506Z,1017.74
2017-04-23T04:06:47.482Z,1017.76
2017-04-23T04:07:47.454Z,1017.73
2017-04-23T04:08:47.428Z,1017.75
2017-04-23T04:09:47.399Z,1017.74
2017-04-23T04:10:47.376Z,1017.77
2017-04-23T04:11:47.348Z,1017.79
2017-04-23T04:12:47.323Z,1017.79
2017-04-23T04:13:47.298Z,1017.75
2017-04-23T04:14:47.273Z,1017.76
2017-04-23T04:15:47.246Z,1017.8
2017-04-23T04:16:47.219Z,1017.78
2017-04-23T04:17:47.196Z,1017.77
2017-04-23T04:18:47.168Z,1017.76
2017-04-23T04:19:47.143Z,1017.74
2017-04-23T04:20:47.119Z,1017.77
2017-04-23T04:21:47.093Z,1017.78
2017-04-23T04:22:47.065Z,1017.73
2017-04-23T04:23:47.040Z,1017.75
2017-04-23T04:24:47.013Z,1017.75
2017-04-23T04:25:46.987Z,1017.72
2017-04-23T04:26:46.969Z,1017.73
2017-04-23T04:27:46.937Z,1017.73
2017-04-23T04:28:46.910Z,1017.73
2017-04-23T04:29:46.889Z,1017.73
2017-04-23T04:30:46.859Z,1017.75
2017-04-23T04:31:46.834Z,1017.7
2017-04-23T04:32:46.808Z,1017.74
2017-04-23T04:33:46.788Z,1017.78
2017-04-23T04:34:46.760Z,1017.75
2017-04-23T04:35:46.744Z,1017.8
2017-04-23T04:36:46.706Z,1017.78
2017-04-23T04:37:46.676Z,1017.75
2017-04-23T04:38:46.657Z,1017.78
2017-04-23T04:39:46.626Z,1017.8
2017-04-23T04:40:46.601Z,1017.84
2017-04-23T04:41:46.579Z,1017.84
2017-04-23T04:42:46.553Z,1017.83
2017-04-23T04:43:46.527Z,1017.83
2017-04-23T04:44:46.498Z,1017.85
2017-04-23T04:45:46.473Z,1017.86
2017-04-23T04:46:46.447Z,1017.86
2017-04-23T04:47:46.422Z,1017.87
2017-04-23T04:48:46.402Z,1017.91
2017-04-23T04:49:46.372Z,1017.95
2017-04-23T04:50:46.345Z,1017.89
2017-04-23T04:51:46.322Z,1017.91
2017-04-23T04:52:46.297Z,1017.92
2017-04-23T04:53:46.274Z,1017.97
2017-04-23T04:54:46.246Z,1017.91
2017-04-23T04:55:46.224Z,1017.98
2017-04-23T04:56:46.195Z,1017.97
2017-04-23T04:57:46.171Z,1017.98
2017-04-23T04:58:46.148Z,1017.99
2017-04-23T04:59:46.124Z,1017.94
2017-04-23T05:00:46.097Z,1017.92
2017-04-23T05:01:46.071Z,1017.96
2017-04-23T05:02:46.097Z,1017.97
2017-04-23T05:03:46.022Z,1017.96
2017-04-23T05:04:45.998Z,1017.96
2017-04-23T05:05:45.971Z,1018.02
2017-04-23T05:06:45.945Z,1017.96
2017-04-23T05:07:45.920Z,1018.01
2017-04-23T05:08:45.898Z,1018.01
2017-04-23T05:09:45.872Z,1018.03
2017-04-23T05:10:45.846Z,1018.01
2017-04-23T05:11:45.821Z,1018.04
2017-04-23T05:12:45.799Z,1018.03
2017-04-23T05:13:45.775Z,1018.05
2017-04-23T05:14:45.748Z,1018.02
2017-04-23T05:15:45.723Z,1018.05
2017-04-23T05:16:45.699Z,1018.03
2017-04-23T05:17:45.674Z,1018.05
2017-04-23T05:18:45.655Z,1018.02
2017-04-23T05:19:45.624Z,1018.06
2017-04-23T05:20:45.599Z,1018.03
2017-04-23T05:21:45.577Z,1018.08
2017-04-23T05:22:45.554Z,1018.09
2017-04-23T05:23:45.529Z,1018.03
2017-04-23T05:24:45.508Z,1018.11
2017-04-23T05:25:45.482Z,1018.09
2017-04-23T05:26:45.458Z,1018.09
2017-04-23T05:27:45.434Z,1018.12
2017-04-23T05:28:45.411Z,1018.08
2017-04-23T05:29:45.386Z,1018.07
2017-04-23T05:30:45.363Z,1018.1
2017-04-23T05:31:45.339Z,1018.12
2017-04-23T05:32:45.316Z,1018.06
2017-04-23T05:33:45.291Z,1018.08
2017-04-23T05:34:45.268Z,1018.06
2017-04-23T05:35:45.244Z,1018.06
2017-04-23T05:36:45.221Z,1018.08
2017-04-23T05:37:45.200Z,1018.12
2017-04-23T05:38:45.175Z,1018.1
2017-04-23T05:39:45.150Z,1018.15
2017-04-23T05:40:45.128Z,1018.16
2017-04-23T05:41:45.101Z,1018.15
2017-04-23T05:42:45.078Z,1018.17
2017-04-23T05:43:45.055Z,1018.19
2017-04-23T05:44:45.031Z,1018.16
2017-04-23T05:45:45.004Z,1018.19
2017-04-23T05:46:44.982Z,1018.17
2017-04-23T05:47:44.960Z,1018.2
2017-04-23T05:48:44.935Z,1018.15
2017-04-23T05:49:44.913Z,1018.18
2017-04-23T05:50:44.888Z,1018.16
2017-04-23T05:51:44.864Z,1018.17
2017-04-23T05:52:44.845Z,1018.19
2017-04-23T05:53:44.819Z,1018.18
2017-04-23T05:54:44.846Z,1018.24
2017-04-23T05:55:44.768Z,1018.21
2017-04-23T05:56:44.753Z,1018.2
2017-04-23T05:57:44.726Z,1018.21
2017-04-23T05:58:44.701Z,1018.29
2017-04-23T05:59:44.675Z,1018.32
2017-04-23T06:00:44.657Z,1018.29
2017-04-23T06:01:44.629Z,1018.38
2017-04-23T06:02:44.605Z,1018.34
2017-04-23T06:03:44.581Z,1018.32
2017-04-23T06:04:44.559Z,1018.34
2017-04-23T06:05:44.537Z,1018.35
2017-04-23T06:06:44.513Z,1018.35
2017-04-23T06:07:44.489Z,1018.3
2017-04-23T06:08:44.466Z,1018.31
2017-04-23T06:09:44.443Z,1018.32
2017-04-23T06:10:44.420Z,1018.29
2017-04-23T06:11:44.397Z,1018.33
2017-04-23T06:12:44.378Z,1018.3
2017-04-23T06:13:44.352Z,1018.35
2017-04-23T06:14:44.350Z,1018.38
2017-04-23T06:15:44.304Z,1018.41
2017-04-23T06:16:44.285Z,1018.43
2017-04-23T06:17:44.262Z,1018.36
2017-04-23T06:18:44.240Z,1018.33
2017-04-23T06:19:44.220Z,1018.33
2017-04-23T06:20:44.192Z,1018.32
2017-04-23T06:21:44.172Z,1018.37
2017-04-23T06:22:44.150Z,1018.31
2017-04-23T06:23:44.132Z,1018.28
2017-04-23T06:24:44.104Z,1018.35
2017-04-23T06:25:44.086Z,1018.38
2017-04-23T06:26:44.060Z,1018.36
2017-04-23T06:27:44.039Z,1018.32
2017-04-23T06:28:44.018Z,1018.3
2017-04-23T06:29:43.999Z,1018.3
2017-04-23T06:30:43.972Z,1018.26
2017-04-23T06:31:43.952Z,1018.3
2017-04-23T06:32:43.928Z,1018.32
2017-04-23T06:33:43.906Z,1018.25
2017-04-23T06:34:43.935Z,1018.26
2017-04-23T06:35:43.863Z,1018.3
2017-04-23T06:36:43.842Z,1018.33
2017-04-23T06:37:43.819Z,1018.33
2017-04-23T06:38:43.798Z,1018.34
2017-04-23T06:39:43.776Z,1018.35
2017-04-23T06:40:43.755Z,1018.4
2017-04-23T06:41:43.732Z,1018.38
2017-04-23T06:42:43.712Z,1018.32
2017-04-23T06:43:43.691Z,1018.36
2017-04-23T06:44:43.670Z,1018.34
2017-04-23T06:45:43.651Z,1018.35
2017-04-23T06:46:43.628Z,1018.32
2017-04-23T06:47:43.608Z,1018.35
2017-04-23T06:48:43.591Z,1018.33
2017-04-23T06:49:43.570Z,1018.35
2017-04-23T06:50:43.551Z,1018.31
2017-04-23T06:51:43.530Z,1018.29
2017-04-23T06:52:43.510Z,1018.3
2017-04-23T06:53:43.489Z,1018.35
2017-04-23T06:54:43.472Z,1018.4
2017-04-23T06:55:43.450Z,1018.46
2017-04-23T06:56:43.427Z,1018.49
2017-04-23T06:57:43.409Z,1018.49
2017-04-23T06:58:43.391Z,1018.49
2017-04-23T06:59:43.368Z,1018.5
2017-04-23T07:00:43.347Z,1018.47
2017-04-23T07:01:43.323Z,1018.53
2017-04-23T07:02:43.307Z,1018.48
2017-04-23T07:03:43.303Z,1018.48
2017-04-23T07:04:43.262Z,1018.48
2017-04-23T07:05:43.241Z,1018.55
2017-04-23T07:06:43.221Z,1018.57
2017-04-23T07:07:43.249Z,1018.53
2017-04-23T07:08:43.177Z,1018.58
2017-04-23T07:09:43.156Z,1018.58
2017-04-23T07:10:43.136Z,1018.56
2017-04-23T07:11:43.115Z,1018.61
2017-04-23T07:12:43.090Z,1018.64
2017-04-23T07:13:43.073Z,1018.63
2017-04-23T07:14:43.047Z,1018.67
2017-04-23T07:15:43.030Z,1018.64
2017-04-23T07:16:43.005Z,1018.67
2017-04-23T07:17:42.985Z,1018.67
2017-04-23T07:18:42.961Z,1018.65
2017-04-23T07:19:42.941Z,1018.66
2017-04-23T07:20:42.917Z,1018.74
2017-04-23T07:21:42.897Z,1018.7
2017-04-23T07:22:42.878Z,1018.69
2017-04-23T07:23:42.853Z,1018.61
2017-04-23T07:24:43.047Z,1018.62
2017-04-23T07:25:42.813Z,1018.62
2017-04-23T07:26:42.791Z,1018.65
2017-04-23T07:27:42.773Z,1018.68
2017-04-23T07:28:42.747Z,1018.66
2017-04-23T07:29:42.725Z,1018.63
2017-04-23T07:30:42.702Z,1018.67
2017-04-23T07:31:42.681Z,1018.7
2017-04-23T07:32:42.661Z,1018.7
2017-04-23T07:33:42.637Z,1018.7
2017-04-23T07:34:42.617Z,1018.63
2017-04-23T07:35:42.594Z,1018.66
2017-04-23T07:36:42.625Z,1018.69
2017-04-23T07:37:42.554Z,1018.65
2017-04-23T07:38:42.534Z,1018.72
2017-04-23T07:39:42.515Z,1018.67
2017-04-23T07:40:42.546Z,1018.63
2017-04-23T07:41:42.484Z,1018.68
2017-04-23T07:42:42.458Z,1018.58
2017-04-23T07:43:42.438Z,1018.59
2017-04-23T07:44:42.418Z,1018.59
2017-04-23T07:45:42.400Z,1018.62
2017-04-23T07:46:42.383Z,1018.63
2017-04-23T07:47:42.364Z,1018.65
2017-04-23T07:48:42.353Z,1018.62
2017-04-23T07:49:42.331Z,1018.7
2017-04-23T07:50:42.311Z,1018.71
2017-04-23T07:51:42.341Z,1018.66
2017-04-23T07:52:42.276Z,1018.69
2017-04-23T07:53:42.470Z,1018.73
2017-04-23T07:54:42.239Z,1018.71
2017-04-23T07:55:42.222Z,1018.75
2017-04-23T07:56:42.204Z,1018.77
2017-04-23T07:57:42.187Z,1018.78
2017-04-23T07:58:42.167Z,1018.73
2017-04-23T07:59:42.146Z,1018.77
2017-04-23T08:00:42.126Z,1018.8
2017-04-23T08:01:42.108Z,1018.76
2017-04-23T08:02:42.089Z,1018.82
2017-04-23T08:03:42.068Z,1018.82
2017-04-23T08:04:42.054Z,1018.83
2017-04-23T08:05:42.030Z,1018.76
2017-04-23T08:06:42.008Z,1018.77
2017-04-23T08:07:41.994Z,1018.73
2017-04-23T08:08:41.979Z,1018.74
2017-04-23T08:09:41.957Z,1018.7
2017-04-23T08:10:41.938Z,1018.78
2017-04-23T08:11:41.920Z,1018.77
2017-04-23T08:12:41.901Z,1018.75
2017-04-23T08:13:41.883Z,1018.72
2017-04-23T08:14:41.864Z,1018.77
2017-04-23T08:15:41.844Z,1018.75
2017-04-23T08:16:41.825Z,1018.74
2017-04-23T08:17:41.806Z,1018.76
2017-04-23T08:18:41.794Z,1018.82
2017-04-23T08:19:41.774Z,1018.73
2017-04-23T08:20:41.750Z,1018.78
2017-04-23T08:21:41.731Z,1018.73
2017-04-23T08:22:41.761Z,1018.75
2017-04-23T08:23:41.692Z,1018.75
2017-04-23T08:24:41.672Z,1018.78
2017-04-23T08:25:41.653Z,1018.75
2017-04-23T08:26:41.632Z,1018.79
2017-04-23T08:27:41.614Z,1018.79
2017-04-23T08:28:41.591Z,1018.74
2017-04-23T08:29:41.576Z,1018.78
2017-04-23T08:30:41.553Z,1018.76
2017-04-23T08:31:41.532Z,1018.75
2017-04-23T08:32:41.509Z,1018.78
2017-04-23T08:33:41.489Z,1018.72
2017-04-23T08:34:41.470Z,1018.71
2017-04-23T08:35:41.449Z,1018.68
2017-04-23T08:36:41.428Z,1018.72
2017-04-23T08:37:41.405Z,1018.63
2017-04-23T08:38:41.388Z,1018.72
2017-04-23T08:39:41.371Z,1018.71
2017-04-23T08:40:41.350Z,1018.73
2017-04-23T08:41:41.327Z,1018.75
2017-04-23T08:42:41.305Z,1018.7
2017-04-23T08:43:41.288Z,1018.73
2017-04-23T08:44:41.269Z,1018.71
2017-04-23T08:45:41.249Z,1018.68
2017-04-23T08:46:41.235Z,1018.68
2017-04-23T08:47:41.209Z,1018.69
2017-04-23T08:48:41.193Z,1018.64
2017-04-23T08:49:41.171Z,1018.71
2017-04-23T08:50:41.151Z,1018.68
2017-04-23T08:51:41.134Z,1018.71
2017-04-23T08:52:41.113Z,1018.69
2017-04-23T08:53:41.092Z,1018.62
2017-04-23T08:54:41.078Z,1018.64
2017-04-23T08:55:41.054Z,1018.65
2017-04-23T08:56:41.036Z,1018.66
2017-04-23T08:57:41.016Z,1018.64
2017-04-23T08:58:40.995Z,1018.6
2017-04-23T08:59:40.981Z,1018.52
2017-04-23T09:00:40.957Z,1018.53
2017-04-23T09:01:40.935Z,1018.57
2017-04-23T09:02:40.917Z,1018.6
2017-04-23T09:03:40.898Z,1018.61
2017-04-23T09:04:40.873Z,1018.6
2017-04-23T09:05:40.859Z,1018.51
2017-04-23T09:06:40.840Z,1018.58
2017-04-23T09:07:40.821Z,1018.47
2017-04-23T09:08:40.802Z,1018.51
2017-04-23T09:09:40.782Z,1018.48
2017-04-23T09:10:40.765Z,1018.61
2017-04-23T09:11:40.744Z,1018.63
2017-04-23T09:12:40.726Z,1018.53
2017-04-23T09:13:40.707Z,1018.55
2017-04-23T09:14:40.690Z,1018.55
2017-04-23T09:15:40.670Z,1018.55
2017-04-23T09:16:40.651Z,1018.51
2017-04-23T09:17:40.635Z,1018.61
2017-04-23T09:18:40.615Z,1018.58
2017-04-23T09:19:40.594Z,1018.61
2017-04-23T09:20:40.577Z,1018.51
2017-04-23T09:21:40.556Z,1018.54
2017-04-23T09:22:40.543Z,1018.58
2017-04-23T09:23:40.518Z,1018.59
2017-04-23T09:24:40.500Z,1018.55
2017-04-23T09:25:40.478Z,1018.53
2017-04-23T09:26:40.459Z,1018.54
2017-04-23T09:27:40.444Z,1018.52
2017-04-23T09:28:40.421Z,1018.53
2017-04-23T09:29:40.398Z,1018.49
2017-04-23T09:30:40.380Z,1018.55
2017-04-23T09:31:40.364Z,1018.51
2017-04-23T09:32:40.340Z,1018.47
2017-04-23T09:33:40.320Z,1018.46
2017-04-23T09:34:40.300Z,1018.5
2017-04-23T09:35:40.278Z,1018.56
2017-04-23T09:36:40.260Z,1018.5
2017-04-23T09:37:40.242Z,1018.52
2017-04-23T09:38:40.216Z,1018.51
2017-04-23T09:39:40.198Z,1018.52
2017-04-23T09:40:40.176Z,1018.52
2017-04-23T09:41:40.154Z,1018.57
2017-04-23T09:42:40.134Z,1018.51
2017-04-23T09:43:40.140Z,1018.52
2017-04-23T09:44:40.092Z,1018.59
2017-04-23T09:45:40.071Z,1018.59
2017-04-23T09:46:40.051Z,1018.54
2017-04-23T09:47:40.026Z,1018.5
2017-04-23T09:48:40.007Z,1018.56
2017-04-23T09:49:39.994Z,1018.49
2017-04-23T09:50:40.012Z,1018.5
2017-04-23T09:51:39.943Z,1018.48
2017-04-23T09:52:39.924Z,1018.51
2017-04-23T09:53:39.906Z,1018.48
2017-04-23T09:54:39.880Z,1018.48
2017-04-23T09:55:39.857Z,1018.52
2017-04-23T09:56:39.840Z,1018.49
2017-04-23T09:57:39.813Z,1018.46
2017-04-23T09:58:39.790Z,1018.48
2017-04-23T09:59:39.770Z,1018.42
2017-04-23T10:00:39.749Z,1018.44
2017-04-23T10:01:39.727Z,1018.49
2017-04-23T10:02:39.705Z,1018.46
2017-04-23T10:03:39.685Z,1018.51
2017-04-23T10:04:39.662Z,1018.4
2017-04-23T10:05:39.661Z,1018.46
2017-04-23T10:06:39.617Z,1018.46
2017-04-23T10:07:39.603Z,1018.45
2017-04-23T10:08:39.574Z,1018.49
2017-04-23T10:09:39.555Z,1018.43
2017-04-23T10:10:39.534Z,1018.52
2017-04-23T10:11:39.513Z,1018.49
2017-04-23T10:12:39.492Z,1018.45
2017-04-23T10:13:39.473Z,1018.4
2017-04-23T10:14:39.445Z,1018.43
2017-04-23T10:15:39.426Z,1018.47
2017-04-23T10:16:39.403Z,1018.43
2017-04-23T10:17:39.385Z,1018.43
2017-04-23T10:18:39.361Z,1018.41
2017-04-23T10:19:39.335Z,1018.48
2017-04-23T10:20:39.316Z,1018.48
2017-04-23T10:21:39.293Z,1018.53
2017-04-23T10:22:39.323Z,1018.61
2017-04-23T10:23:39.251Z,1018.57
2017-04-23T10:24:39.228Z,1018.56
2017-04-23T10:25:39.210Z,1018.61
2017-04-23T10:26:39.186Z,1018.58
2017-04-23T10:27:39.167Z,1018.66
2017-04-23T10:28:39.144Z,1018.75
2017-04-23T10:29:39.122Z,1018.77
2017-04-23T10:30:39.097Z,1018.82
2017-04-23T10:31:39.076Z,1018.82
2017-04-23T10:32:39.054Z,1018.85
2017-04-23T10:33:39.034Z,1018.8
2017-04-23T10:34:39.012Z,1018.77
2017-04-23T10:35:38.988Z,1018.75
2017-04-23T10:36:38.971Z,1018.72
2017-04-23T10:37:38.943Z,1018.7
2017-04-23T10:38:38.926Z,1018.7
2017-04-23T10:39:38.923Z,1018.69
2017-04-23T10:40:38.878Z,1018.7
2017-04-23T10:41:38.860Z,1018.72
2017-04-23T10:42:38.833Z,1018.67
2017-04-23T10:43:38.809Z,1018.66
2017-04-23T10:44:38.794Z,1018.66
2017-04-23T10:45:38.776Z,1018.67
2017-04-23T10:46:38.743Z,1018.69
2017-04-23T10:47:38.728Z,1018.67
2017-04-23T10:48:38.707Z,1018.71
2017-04-23T10:49:38.681Z,1018.58
2017-04-23T10:50:38.662Z,1018.61
2017-04-23T10:51:38.644Z,1018.58
2017-04-23T10:52:38.621Z,1018.57
2017-04-23T10:53:38.598Z,1018.56
2017-04-23T10:54:38.576Z,1018.56
2017-04-23T10:55:38.559Z,1018.46
2017-04-23T10:56:38.536Z,1018.39
2017-04-23T10:57:38.520Z,1018.37
2017-04-23T10:58:38.496Z,1018.43
2017-04-23T10:59:38.473Z,1018.41
2017-04-23T11:00:38.453Z,1018.38
2017-04-23T11:01:38.429Z,1018.32
2017-04-23T11:02:38.413Z,1018.34
2017-04-23T11:03:38.391Z,1018.31
2017-04-23T11:04:38.369Z,1018.28
2017-04-23T11:05:38.347Z,1018.29
2017-04-23T11:06:38.328Z,1018.3
2017-04-23T11:07:38.307Z,1018.32
2017-04-23T11:08:38.284Z,1018.31
2017-04-23T11:09:38.264Z,1018.25
2017-04-23T11:10:38.293Z,1018.23
2017-04-23T11:11:38.222Z,1018.25
2017-04-23T11:13:38.181Z,1018.24
2017-04-23T11:14:38.154Z,1018.27
2017-04-23T11:15:38.134Z,1018.32
2017-04-23T11:16:38.115Z,1018.36
2017-04-23T11:17:38.094Z,1018.32
2017-04-23T11:18:38.073Z,1018.4
2017-04-23T11:19:38.052Z,1018.36
2017-04-23T11:20:38.029Z,1018.32
2017-04-23T11:21:38.010Z,1018.3
2017-04-23T11:22:37.986Z,1018.25
2017-04-23T11:23:37.971Z,1018.3
2017-04-23T11:24:37.942Z,1018.28
2017-04-23T11:25:37.924Z,1018.31
2017-04-23T11:26:37.902Z,1018.24
2017-04-23T11:27:37.881Z,1018.26
2017-04-23T11:28:37.859Z,1018.17
2017-04-23T11:29:37.838Z,1018.21
2017-04-23T11:30:37.817Z,1018.22
2017-04-23T11:31:37.796Z,1018.17
2017-04-23T11:32:37.775Z,1018
2017-04-23T11:33:37.753Z,1018.21
2017-04-23T11:34:37.731Z,1018.12
2017-04-23T11:35:37.710Z,1018.04
2017-04-23T11:36:37.741Z,1018.09
2017-04-23T11:37:37.682Z,1018.05
2017-04-23T11:38:37.651Z,1018.09
2017-04-23T11:39:37.627Z,1017.98
2017-04-23T11:40:37.609Z,1017.97
2017-04-23T11:41:37.587Z,1018.05
2017-04-23T11:42:37.565Z,1018.01
2017-04-23T11:43:37.545Z,1018.05
2017-04-23T11:44:37.522Z,1018.06
2017-04-23T11:45:37.501Z,1018.08
2017-04-23T11:46:37.486Z,1018.01
2017-04-23T11:47:37.458Z,1018.07
2017-04-23T11:48:37.439Z,1018.13
2017-04-23T11:49:37.417Z,1018.08
2017-04-23T11:50:37.394Z,1018.06
2017-04-23T11:51:37.371Z,1018.05
2017-04-23T11:52:37.352Z,1018.09
2017-04-23T11:53:37.327Z,1017.97
2017-04-23T11:54:37.308Z,1017.96
2017-04-23T11:55:37.285Z,1018.04
2017-04-23T11:56:37.267Z,1017.98
2017-04-23T11:57:37.247Z,1018.06
2017-04-23T11:58:37.227Z,1017.94
2017-04-23T11:59:37.200Z,1017.98
2017-04-23T12:00:37.179Z,1018.02
2017-04-23T12:01:37.159Z,1018.02
2017-04-23T12:02:37.136Z,1018.04
2017-04-23T12:03:37.114Z,1018.07
2017-04-23T12:04:37.143Z,1018.08
2017-04-23T12:05:37.072Z,1018.07
2017-04-23T12:06:37.049Z,1018.1
2017-04-23T12:07:37.027Z,1018.14
2017-04-23T12:08:37.007Z,1018.16
2017-04-23T12:09:36.986Z,1018.21